Time;durP1;ratioP1;P1;durP2;ratioP2;P2;SDS_P1;SDS_P2;PMS_P1;PMS_P2;Temp;Humidity;BMP_temperature;BMP_pressure;BME280_temperature;BME280_humidity;BME280_pressure;Samples;Min_cycle;Max_cycle;Signal;HPM_P1;HPM_P2
2022/12/15 00:40:58;;;;;;;7.53;6.70;;;;;;;;;;5074513;28;20212;-91
2022/12/15 00:43:26;;;;;;;7.33;6.33;;;;;;;;;;5074211;28;20269;-91
2022/12/15 00:48:40;;;;;;;10.70;7.97;;;;;;;;;;5074330;28;20211;-90
2022/12/15 00:51:06;;;;;;;10.53;8.00;;;;;;;;;;5074105;28;20240;-92
2022/12/15 01:21:11;;;;;;;9.23;7.93;;;;;;;;;;5073944;28;20208;-91
2022/12/15 01:23:40;;;;;;;12.23;8.33;;;;;;;;;;5087454;28;20204;-90
2022/12/15 01:26:09;;;;;;;7.73;6.83;;;;;;;;;;5073197;28;20216;-91
2022/12/15 01:28:41;;;;;;;9.67;7.70;;;;;;;;;;5072938;28;20213;-90
2022/12/15 01:31:12;;;;;;;9.50;8.10;;;;;;;;;;5073224;28;20220;-91
2022/12/15 01:33:41;;;;;;;10.73;9.23;;;;;;;;;;5073494;28;20209;-90
2022/12/15 01:36:10;;;;;;;11.30;8.63;;;;;;;;;;5080812;28;20682;-90
2022/12/15 01:38:38;;;;;;;9.13;7.93;;;;;;;;;;5092595;28;20283;-90
2022/12/15 01:41:05;;;;;;;9.80;8.43;;;;;;;;;;5058800;28;20213;-90
2022/12/15 01:43:35;;;;;;;10.10;8.60;;;;;;;;;;5064614;28;20603;-92
2022/12/15 01:46:09;;;;;;;10.77;8.97;;;;;;;;;;5067800;28;20213;-90
2022/12/15 01:48:41;;;;;;;12.83;10.70;;;;;;;;;;5072862;28;20213;-91
2022/12/15 01:51:19;;;;;;;10.83;9.73;;;;;;;;;;5072795;28;20260;-90
2022/12/15 01:53:51;;;;;;;9.30;8.23;;;;;;;;;;5072880;28;20634;-90
2022/12/15 01:56:19;;;;;;;11.87;9.10;;;;;;;;;;5072997;28;20239;-90
2022/12/15 01:58:50;;;;;;;14.27;11.57;;;;;;;;;;5072683;28;20205;-92
2022/12/15 02:01:18;;;;;;;13.70;10.83;;;;;;;;;;5086614;28;20204;-92
2022/12/15 02:03:48;;;;;;;15.03;11.83;;;;;;;;;;5073042;28;20205;-92
2022/12/15 02:06:20;;;;;;;11.97;10.70;;;;;;;;;;5071646;28;20209;-92
2022/12/15 02:08:49;;;;;;;12.17;10.87;;;;;;;;;;5057828;28;20266;-92
2022/12/15 02:11:34;;;;;;;14.27;11.00;;;;;;;;;;5072906;28;20241;-90
2022/12/15 02:14:02;;;;;;;14.70;11.47;;;;;;;;;;5072239;28;20212;-90
2022/12/15 02:16:39;;;;;;;14.07;10.47;;;;;;;;;;5072459;28;20263;-90
2022/12/15 02:19:21;;;;;;;14.07;12.03;;;;;;;;;;5072918;28;20236;-89
2022/12/15 02:21:59;;;;;;;13.80;11.57;;;;;;;;;;5072728;28;20201;-90
2022/12/15 02:24:57;;;;;;;14.27;11.13;;;;;;;;;;5071143;28;20270;-90
2022/12/15 02:27:51;;;;;;;15.40;10.50;;;;;;;;;;5072425;28;20288;-90
2022/12/15 02:30:41;;;;;;;13.90;11.70;;;;;;;;;;5085685;28;20220;-91
2022/12/15 02:33:21;;;;;;;12.33;10.57;;;;;;;;;;5072657;28;20231;-90
2022/12/15 02:35:55;;;;;;;17.13;11.80;;;;;;;;;;5072098;28;20236;-91
2022/12/15 02:38:31;;;;;;;14.87;11.90;;;;;;;;;;5072467;28;20270;-91
2022/12/15 02:41:00;;;;;;;14.30;12.27;;;;;;;;;;5072085;28;20219;-91
2022/12/15 02:43:29;;;;;;;22.33;14.20;;;;;;;;;;5072079;28;20204;-91
2022/12/15 02:46:09;;;;;;;20.27;13.23;;;;;;;;;;5072252;28;20213;-92
2022/12/15 02:48:43;;;;;;;17.57;12.47;;;;;;;;;;5071878;28;20209;-91
2022/12/15 02:51:22;;;;;;;15.83;12.33;;;;;;;;;;5085628;28;20294;-91
2022/12/15 02:54:16;;;;;;;16.87;12.30;;;;;;;;;;5071233;28;20236;-91
2022/12/15 02:56:46;;;;;;;15.63;11.57;;;;;;;;;;5071883;28;20629;-90
2022/12/15 02:59:20;;;;;;;17.80;10.90;;;;;;;;;;5072284;28;20635;-91
2022/12/15 03:01:54;;;;;;;15.60;11.83;;;;;;;;;;5071712;28;20197;-91
2022/12/15 03:04:22;;;;;;;15.40;11.47;;;;;;;;;;5072363;28;20241;-90
2022/12/15 03:06:56;;;;;;;12.47;11.27;;;;;;;;;;5071812;28;20255;-91
2022/12/15 03:09:24;;;;;;;11.90;10.23;;;;;;;;;;5083015;28;20227;-91
2022/12/15 03:11:52;;;;;;;11.50;10.37;;;;;;;;;;5073903;28;20240;-91
2022/12/15 03:14:24;;;;;;;14.37;12.03;;;;;;;;;;5081707;28;20561;-91
2022/12/15 03:16:54;;;;;;;11.50;10.33;;;;;;;;;;5078059;28;20240;-91
2022/12/15 03:19:22;;;;;;;15.07;12.10;;;;;;;;;;5075787;28;20212;-90
2022/12/15 03:21:49;;;;;;;11.00;9.57;;;;;;;;;;5074086;28;20209;-90
2022/12/15 03:24:17;;;;;;;14.23;10.97;;;;;;;;;;5063326;28;20278;-91
2022/12/15 03:26:48;;;;;;;11.50;9.83;;;;;;;;;;5088802;28;20200;-91
2022/12/15 03:29:16;;;;;;;12.90;10.80;;;;;;;;;;5062808;28;20212;-90
2022/12/15 03:31:44;;;;;;;50.03;27.37;;;;;;;;;;5075788;28;20229;-91
2022/12/15 03:34:13;;;;;;;22.27;14.67;;;;;;;;;;5075727;28;20353;-91
2022/12/15 03:36:41;;;;;;;21.23;15.30;;;;;;;;;;5075484;28;20506;-92
2022/12/15 03:39:10;;;;;;;75.13;40.70;;;;;;;;;;5075224;28;20209;-90
2022/12/15 03:41:40;;;;;;;55.27;41.00;;;;;;;;;;5075194;28;20298;-90
2022/12/15 03:44:08;;;;;;;30.27;21.30;;;;;;;;;;5075230;28;20212;-90
2022/12/15 03:46:36;;;;;;;14.00;10.37;;;;;;;;;;5075072;28;20258;-90
2022/12/15 03:49:04;;;;;;;24.40;18.33;;;;;;;;;;5075131;28;20216;-90
2022/12/15 03:51:34;;;;;;;35.10;25.63;;;;;;;;;;5076041;28;20225;-90
2022/12/15 03:54:02;;;;;;;47.13;30.80;;;;;;;;;;5075381;28;20683;-95
2022/12/15 03:56:30;;;;;;;71.83;48.70;;;;;;;;;;5073791;28;20692;-95
2022/12/15 03:59:02;;;;;;;42.73;30.27;;;;;;;;;;5075444;28;20262;-95
2022/12/15 04:01:32;;;;;;;45.07;35.40;;;;;;;;;;5088523;28;20204;-95
2022/12/15 04:04:01;;;;;;;42.30;29.97;;;;;;;;;;5075996;28;20213;-96
2022/12/15 04:06:29;;;;;;;18.17;13.93;;;;;;;;;;5074530;28;20209;-94
2022/12/15 04:08:59;;;;;;;16.07;13.47;;;;;;;;;;5074815;28;20256;-94
2022/12/15 04:11:27;;;;;;;15.37;12.23;;;;;;;;;;5074521;28;20228;-94
2022/12/15 04:13:55;;;;;;;14.20;11.67;;;;;;;;;;5074855;28;20213;-94
2022/12/15 04:16:24;;;;;;;17.77;13.03;;;;;;;;;;5066333;28;20263;-94
2022/12/15 04:20:07;;;;;;;20.77;13.90;;;;;;;;;;5063549;28;20260;-94
2022/12/15 04:21:40;;;;;;;13.10;11.33;;;;;;;;;;5072638;28;20250;-94
2022/12/15 05:33:30;;;;;;;9.23;7.97;;;;;;;;;;5072770;28;20216;-91
2022/12/15 05:35:57;;;;;;;9.37;8.10;;;;;;;;;;5072122;28;20209;-91
2022/12/15 05:38:25;;;;;;;10.00;8.80;;;;;;;;;;5071663;28;20873;-90
2022/12/15 05:40:52;;;;;;;14.33;9.00;;;;;;;;;;5071877;28;20691;-91
2022/12/15 05:43:19;;;;;;;10.00;8.37;;;;;;;;;;5072464;28;20235;-90
2022/12/15 05:45:48;;;;;;;9.93;8.57;;;;;;;;;;5072154;28;20282;-91
2022/12/15 05:48:15;;;;;;;11.53;8.63;;;;;;;;;;5072914;28;20205;-91
2022/12/15 05:50:42;;;;;;;11.33;8.43;;;;;;;;;;5072411;28;20232;-91
2022/12/15 05:53:09;;;;;;;10.70;9.37;;;;;;;;;;5071727;28;20223;-90
2022/12/15 05:55:36;;;;;;;10.03;7.67;;;;;;;;;;5072031;28;20201;-90
2022/12/15 05:58:03;;;;;;;12.87;9.10;;;;;;;;;;5071900;28;20204;-90
2022/12/15 06:00:30;;;;;;;11.97;8.93;;;;;;;;;;5071972;28;20255;-90
2022/12/15 06:02:58;;;;;;;14.27;10.20;;;;;;;;;;5071634;28;20672;-91
2022/12/15 06:05:25;;;;;;;12.67;9.17;;;;;;;;;;5072455;28;20235;-89
2022/12/15 06:07:52;;;;;;;10.97;8.70;;;;;;;;;;5072874;28;20212;-91
2022/12/15 06:10:19;;;;;;;10.23;8.23;;;;;;;;;;5073607;28;20216;-91
2022/12/15 06:12:46;;;;;;;9.70;8.57;;;;;;;;;;5071736;28;20235;-90
2022/12/15 06:15:13;;;;;;;10.23;9.03;;;;;;;;;;5085426;28;20201;-90
2022/12/15 06:17:40;;;;;;;14.00;10.97;;;;;;;;;;5070864;28;20237;-91
2022/12/15 06:20:10;;;;;;;12.60;10.47;;;;;;;;;;5072074;28;20221;-90
2022/12/15 06:22:38;;;;;;;13.27;9.20;;;;;;;;;;5071680;28;20205;-91
2022/12/15 06:25:06;;;;;;;9.73;8.20;;;;;;;;;;5071375;28;20209;-90
2022/12/15 06:27:36;;;;;;;12.63;8.70;;;;;;;;;;5081257;28;20209;-90
2022/12/15 06:30:03;;;;;;;11.17;8.90;;;;;;;;;;5072275;28;20216;-90
2022/12/15 06:32:30;;;;;;;10.80;9.27;;;;;;;;;;5064479;28;20315;-90
2022/12/15 06:34:57;;;;;;;10.63;7.40;;;;;;;;;;5057657;28;20205;-90
2022/12/15 06:37:26;;;;;;;13.43;9.73;;;;;;;;;;5062466;28;20216;-90
2022/12/15 06:39:53;;;;;;;12.63;9.70;;;;;;;;;;5071406;28;20217;-93
2022/12/15 06:42:20;;;;;;;12.70;10.20;;;;;;;;;;5071094;28;20216;-92
2022/12/15 06:44:47;;;;;;;13.20;9.53;;;;;;;;;;5071441;28;20225;-93
2022/12/15 06:47:14;;;;;;;10.83;8.93;;;;;;;;;;5071133;28;20201;-93
2022/12/15 06:49:41;;;;;;;10.77;7.80;;;;;;;;;;5073806;28;20204;-91
2022/12/15 06:52:08;;;;;;;8.90;7.63;;;;;;;;;;5055979;28;20226;-92
2022/12/15 06:54:37;;;;;;;9.70;7.37;;;;;;;;;;5064385;28;20223;-91
2022/12/15 06:57:04;;;;;;;5.97;5.20;;;;;;;;;;5071948;28;20777;-90
2022/12/15 06:59:32;;;;;;;5.90;5.40;;;;;;;;;;5070773;28;20216;-92
2022/12/15 07:01:59;;;;;;;6.80;6.03;;;;;;;;;;5071080;28;20633;-93
2022/12/15 07:04:26;;;;;;;6.57;5.97;;;;;;;;;;5071004;28;20228;-91
2022/12/15 07:06:55;;;;;;;7.27;6.23;;;;;;;;;;5070406;28;20629;-93
2022/12/15 07:09:24;;;;;;;6.00;5.40;;;;;;;;;;5081388;28;20290;-90
2022/12/15 07:11:53;;;;;;;5.63;5.03;;;;;;;;;;5074064;28;20228;-90
2022/12/15 07:14:21;;;;;;;6.97;6.27;;;;;;;;;;5071432;28;20212;-91
2022/12/15 07:16:50;;;;;;;7.13;5.87;;;;;;;;;;5070190;28;20703;-89
2022/12/15 07:19:17;;;;;;;11.83;8.80;;;;;;;;;;5065686;28;20237;-90
2022/12/15 07:21:44;;;;;;;11.27;9.20;;;;;;;;;;5071459;28;20210;-91
2022/12/15 07:24:12;;;;;;;9.37;7.83;;;;;;;;;;5070470;28;20208;-91
2022/12/15 07:26:39;;;;;;;7.90;6.20;;;;;;;;;;5070950;28;20262;-91
2022/12/15 07:29:08;;;;;;;10.80;9.30;;;;;;;;;;5070480;28;20213;-93
2022/12/15 07:31:35;;;;;;;8.70;7.77;;;;;;;;;;5069531;28;20279;-87
2022/12/15 07:34:02;;;;;;;9.90;8.00;;;;;;;;;;5070999;28;20209;-90
2022/12/15 07:36:28;;;;;;;8.17;6.63;;;;;;;;;;5070973;28;20213;-90
2022/12/15 07:38:59;;;;;;;6.07;5.47;;;;;;;;;;5071355;28;20643;-91
2022/12/15 07:41:27;;;;;;;7.13;5.80;;;;;;;;;;5071804;28;20205;-88
2022/12/15 07:43:54;;;;;;;6.47;4.90;;;;;;;;;;5071400;28;20209;-91
2022/12/15 07:46:22;;;;;;;4.67;4.10;;;;;;;;;;5070719;28;20206;-88
2022/12/15 07:48:49;;;;;;;10.97;8.77;;;;;;;;;;5070948;28;20213;-89
2022/12/15 07:51:18;;;;;;;8.70;6.77;;;;;;;;;;5071335;28;20765;-91
2022/12/15 07:53:45;;;;;;;6.67;5.97;;;;;;;;;;5081697;28;20815;-89
2022/12/15 07:56:12;;;;;;;8.40;7.63;;;;;;;;;;5069895;28;20646;-90
2022/12/15 07:58:39;;;;;;;6.43;5.93;;;;;;;;;;5071364;28;20209;-89
2022/12/15 08:01:07;;;;;;;5.57;4.93;;;;;;;;;;5070572;28;20208;-91
2022/12/15 08:03:36;;;;;;;6.10;5.60;;;;;;;;;;5074330;28;20244;-87
2022/12/15 08:06:04;;;;;;;5.67;5.17;;;;;;;;;;5071488;28;20280;-89
2022/12/15 08:08:31;;;;;;;6.90;6.23;;;;;;;;;;5069592;28;20197;-92
2022/12/15 08:10:58;;;;;;;6.63;5.97;;;;;;;;;;5073658;28;20260;-95
2022/12/15 08:13:25;;;;;;;4.83;4.37;;;;;;;;;;5074655;28;20213;-92
2022/12/15 08:15:53;;;;;;;4.53;4.10;;;;;;;;;;5074286;28;20213;-90
2022/12/15 08:18:22;;;;;;;5.20;4.70;;;;;;;;;;5066370;28;20260;-87
2022/12/15 08:20:50;;;;;;;4.43;4.03;;;;;;;;;;5051060;28;20214;-87
2022/12/15 08:23:17;;;;;;;4.67;4.33;;;;;;;;;;5070470;28;20205;-87
2022/12/15 08:25:44;;;;;;;3.93;3.53;;;;;;;;;;5068661;28;20578;-87
2022/12/15 08:28:11;;;;;;;5.37;4.53;;;;;;;;;;5066865;28;20212;-90
2022/12/15 08:30:38;;;;;;;4.73;4.27;;;;;;;;;;5067132;28;20201;-90
2022/12/15 08:33:05;;;;;;;4.57;3.93;;;;;;;;;;5065117;28;20315;-94
2022/12/15 08:35:32;;;;;;;6.00;4.37;;;;;;;;;;5066149;28;20201;-92
2022/12/15 08:38:01;;;;;;;5.37;4.47;;;;;;;;;;5064408;28;20212;-90
2022/12/15 08:40:28;;;;;;;4.60;4.20;;;;;;;;;;5065870;28;20201;-91
2022/12/15 08:42:55;;;;;;;3.90;3.50;;;;;;;;;;5063492;28;20675;-92
2022/12/15 08:45:22;;;;;;;3.93;3.60;;;;;;;;;;5066652;28;20201;-88
2022/12/15 08:47:49;;;;;;;3.90;3.60;;;;;;;;;;5069386;28;20570;-88
2022/12/15 08:50:16;;;;;;;3.20;2.90;;;;;;;;;;5074611;28;20685;-94
2022/12/15 08:52:43;;;;;;;4.40;3.67;;;;;;;;;;5071853;28;20225;-83
2022/12/15 08:55:11;;;;;;;3.33;2.90;;;;;;;;;;5072872;28;20197;-84
2022/12/15 08:57:39;;;;;;;4.00;3.60;;;;;;;;;;5072729;28;20267;-83
2022/12/15 09:00:07;;;;;;;3.87;3.50;;;;;;;;;;5063845;28;20196;-84
2022/12/15 09:02:34;;;;;;;3.70;3.40;;;;;;;;;;5080846;28;20318;-84
2022/12/15 09:05:01;;;;;;;3.60;3.17;;;;;;;;;;5072593;28;20201;-84
2022/12/15 09:07:28;;;;;;;3.33;3.03;;;;;;;;;;5071056;28;20205;-85
2022/12/15 09:09:55;;;;;;;6.50;4.50;;;;;;;;;;5050872;28;20237;-83
2022/12/15 09:12:23;;;;;;;5.10;4.23;;;;;;;;;;5062664;28;20232;-83
2022/12/15 09:14:51;;;;;;;3.80;3.50;;;;;;;;;;5068850;28;20201;-83
2022/12/15 09:17:18;;;;;;;3.83;3.53;;;;;;;;;;5061042;28;20201;-87
2022/12/15 09:19:45;;;;;;;4.13;3.73;;;;;;;;;;5063986;28;20672;-85
2022/12/15 09:22:12;;;;;;;5.33;4.37;;;;;;;;;;5066453;28;20198;-89
2022/12/15 09:24:39;;;;;;;4.13;3.83;;;;;;;;;;5071903;28;20201;-87
2022/12/15 09:27:06;;;;;;;4.00;3.60;;;;;;;;;;5059655;28;20208;-88
2022/12/15 09:29:35;;;;;;;3.37;3.07;;;;;;;;;;5068886;28;20726;-88
2022/12/15 09:32:02;;;;;;;3.00;2.80;;;;;;;;;;5062437;28;20617;-89
2022/12/15 09:34:29;;;;;;;3.00;2.77;;;;;;;;;;5059900;28;20229;-88
2022/12/15 09:36:56;;;;;;;2.63;2.43;;;;;;;;;;5070839;28;20675;-88
2022/12/15 09:39:23;;;;;;;5.03;4.53;;;;;;;;;;5062049;28;20313;-87
2022/12/15 09:41:55;;;;;;;3.40;3.10;;;;;;;;;;5071407;28;20209;-88
2022/12/15 09:44:25;;;;;;;3.73;3.40;;;;;;;;;;5058155;28;20201;-88
2022/12/15 09:47:03;;;;;;;6.67;5.40;;;;;;;;;;5071390;28;20196;-87
2022/12/15 09:49:39;;;;;;;6.10;5.47;;;;;;;;;;5072238;28;20220;-88
2022/12/15 09:52:11;;;;;;;4.33;3.93;;;;;;;;;;5081309;28;20224;-88
2022/12/15 09:54:40;;;;;;;4.87;4.33;;;;;;;;;;5076329;28;20244;-88
2022/12/15 09:57:12;;;;;;;3.47;3.17;;;;;;;;;;5072084;28;20201;-88
2022/12/15 09:59:44;;;;;;;4.03;3.63;;;;;;;;;;5086262;28;20192;-88
2022/12/15 10:02:28;;;;;;;3.33;3.03;;;;;;;;;;5072326;28;20706;-87
2022/12/15 10:04:58;;;;;;;4.00;3.70;;;;;;;;;;5072090;28;20634;-88
2022/12/15 10:07:29;;;;;;;3.70;3.40;;;;;;;;;;5072411;28;20209;-87
2022/12/15 10:09:56;;;;;;;4.10;3.80;;;;;;;;;;5072280;28;20219;-88
2022/12/15 10:12:26;;;;;;;3.37;3.07;;;;;;;;;;5072108;28;20278;-87
2022/12/15 10:15:05;;;;;;;35.43;32.67;;;;;;;;;;5072096;28;20228;-87
2022/12/15 10:17:41;;;;;;;4.60;4.20;;;;;;;;;;5083834;28;20244;-88
2022/12/15 10:20:17;;;;;;;3.47;3.13;;;;;;;;;;5072097;28;20266;-87
2022/12/15 10:22:44;;;;;;;5.03;4.63;;;;;;;;;;5071570;28;20215;-87
2022/12/15 10:25:16;;;;;;;37.33;34.17;;;;;;;;;;5071016;28;20582;-88
2022/12/15 10:27:54;;;;;;;26.13;18.70;;;;;;;;;;5071860;28;20204;-88
2022/12/15 10:30:21;;;;;;;109.40;50.70;;;;;;;;;;5071328;28;20683;-88
2022/12/15 10:32:54;;;;;;;25.70;14.03;;;;;;;;;;5071644;28;21068;-88
2022/12/15 10:35:26;;;;;;;25.23;22.73;;;;;;;;;;5072564;28;20200;-87
2022/12/15 10:37:54;;;;;;;8.93;6.77;;;;;;;;;;5084097;28;20251;-87
2022/12/15 10:40:43;;;;;;;8.30;6.23;;;;;;;;;;5071768;28;20205;-89
2022/12/15 10:43:13;;;;;;;5.70;5.20;;;;;;;;;;5066370;28;20232;-88
2022/12/15 10:45:40;;;;;;;6.93;6.33;;;;;;;;;;5063264;28;20695;-87
2022/12/15 10:48:18;;;;;;;33.30;30.37;;;;;;;;;;5071429;28;20205;-87
2022/12/15 10:50:45;;;;;;;4.23;3.87;;;;;;;;;;5070699;28;20205;-88
2022/12/15 10:53:33;;;;;;;42.77;38.23;;;;;;;;;;5075170;28;20672;-87
2022/12/15 10:56:01;;;;;;;7.53;6.27;;;;;;;;;;5078450;28;20752;-87
2022/12/15 10:58:27;;;;;;;11.60;10.33;;;;;;;;;;5071729;28;20228;-87
2022/12/15 11:01:06;;;;;;;8.83;7.93;;;;;;;;;;5071487;28;20209;-87
2022/12/15 11:03:36;;;;;;;21.03;18.83;;;;;;;;;;5071124;28;20741;-87
2022/12/15 11:06:11;;;;;;;29.40;25.33;;;;;;;;;;5071543;28;20258;-87
2022/12/15 11:08:37;;;;;;;178.33;139.07;;;;;;;;;;5070761;28;20295;-88
2022/12/15 11:14:13;;;;;;;49.73;38.50;;;;;;;;;;5071248;28;20614;-88
2022/12/15 11:16:47;;;;;;;17.00;9.93;;;;;;;;;;5070957;28;20209;-88
2022/12/15 11:19:24;;;;;;;31.73;27.23;;;;;;;;;;5071127;28;20248;-87
2022/12/15 11:21:54;;;;;;;9.10;8.20;;;;;;;;;;5070645;28;20205;-87
2022/12/15 11:24:28;;;;;;;10.97;9.10;;;;;;;;;;5071470;28;20295;-87
2022/12/15 11:26:58;;;;;;;10.60;7.93;;;;;;;;;;5071303;28;20216;-87
2022/12/15 11:29:29;;;;;;;17.60;11.47;;;;;;;;;;5079311;28;20246;-87
2022/12/15 11:31:56;;;;;;;70.03;51.40;;;;;;;;;;5076572;28;20634;-87
2022/12/15 11:34:26;;;;;;;22.03;14.73;;;;;;;;;;5070750;28;20205;-88
2022/12/15 11:37:12;;;;;;;36.40;27.47;;;;;;;;;;5072193;28;20209;-87
2022/12/15 11:39:49;;;;;;;12.60;9.90;;;;;;;;;;5063070;28;20282;-87
2022/12/15 11:42:24;;;;;;;27.43;22.23;;;;;;;;;;5074893;28;20292;-87
2022/12/15 11:44:58;;;;;;;26.70;18.87;;;;;;;;;;5075487;28;20639;-88
2022/12/15 11:47:34;;;;;;;24.77;17.97;;;;;;;;;;5074958;28;20562;-87
2022/12/15 11:50:15;;;;;;;26.67;20.27;;;;;;;;;;5075086;28;20208;-87
2022/12/15 11:52:50;;;;;;;51.17;33.57;;;;;;;;;;5074903;28;20311;-87
2022/12/15 11:55:21;;;;;;;24.67;16.40;;;;;;;;;;5074491;28;20215;-88
2022/12/15 11:58:01;;;;;;;443.37;242.53;;;;;;;;;;5074772;28;20614;-87
2022/12/15 12:00:32;;;;;;;26.20;18.37;;;;;;;;;;5074855;28;20205;-87
2022/12/15 12:03:19;;;;;;;332.93;201.00;;;;;;;;;;5074265;28;20209;-87
2022/12/15 12:06:09;;;;;;;17.77;14.83;;;;;;;;;;5064784;28;20689;-88
2022/12/15 12:08:50;;;;;;;58.27;35.87;;;;;;;;;;5081356;28;20630;-88
2022/12/15 12:11:19;;;;;;;28.07;20.50;;;;;;;;;;5074167;28;20208;-88
2022/12/15 12:13:54;;;;;;;51.00;35.50;;;;;;;;;;5074277;28;20270;-87
2022/12/15 12:16:31;;;;;;;41.80;27.93;;;;;;;;;;5074161;28;20217;-87
2022/12/15 12:19:01;;;;;;;21.70;17.00;;;;;;;;;;5074518;28;20228;-87
2022/12/15 12:21:33;;;;;;;17.30;12.33;;;;;;;;;;5074267;28;20631;-87
2022/12/15 12:24:03;;;;;;;78.77;56.30;;;;;;;;;;5074320;28;20216;-88
2022/12/15 12:26:35;;;;;;;30.57;21.57;;;;;;;;;;5073954;28;20703;-88
2022/12/15 12:29:05;;;;;;;21.80;15.63;;;;;;;;;;5074095;28;20204;-87
2022/12/15 12:31:37;;;;;;;24.97;18.40;;;;;;;;;;5074270;28;20247;-87
2022/12/15 12:34:12;;;;;;;16.67;13.23;;;;;;;;;;5073767;28;20224;-88
2022/12/15 12:36:40;;;;;;;14.43;10.87;;;;;;;;;;5073709;28;20201;-87
2022/12/15 12:39:16;;;;;;;18.80;12.03;;;;;;;;;;5073386;28;20664;-88
2022/12/15 12:41:47;;;;;;;15.87;12.53;;;;;;;;;;5073884;28;20272;-87
2022/12/15 12:44:22;;;;;;;17.00;13.10;;;;;;;;;;5073270;28;20219;-89
2022/12/15 12:46:51;;;;;;;14.43;12.30;;;;;;;;;;5073324;28;20212;-87
2022/12/15 12:49:24;;;;;;;15.23;11.00;;;;;;;;;;5072415;28;20678;-87
2022/12/15 12:51:52;;;;;;;12.70;10.77;;;;;;;;;;5073141;28;20220;-87
2022/12/15 12:54:39;;;;;;;13.67;11.57;;;;;;;;;;5073565;28;20721;-87
2022/12/15 12:57:37;;;;;;;37.43;23.87;;;;;;;;;;5061308;28;20247;-87
2022/12/15 13:00:15;;;;;;;45.47;28.67;;;;;;;;;;5072942;28;20320;-87
2022/12/15 13:03:17;;;;;;;40.77;27.73;;;;;;;;;;5072954;28;20197;-87
2022/12/15 13:05:53;;;;;;;56.23;38.57;;;;;;;;;;5072952;28;20204;-86
2022/12/15 13:08:51;;;;;;;24.37;18.77;;;;;;;;;;5072780;28;20212;-88
2022/12/15 13:12:01;;;;;;;42.20;34.07;;;;;;;;;;5073336;28;20216;-87
2022/12/15 13:14:45;;;;;;;34.23;30.27;;;;;;;;;;5072581;28;20232;-87
2022/12/15 13:17:17;;;;;;;27.50;22.37;;;;;;;;;;5073180;28;20205;-87
2022/12/15 13:20:29;;;;;;;38.43;24.60;;;;;;;;;;5072781;28;20670;-87
2022/12/15 13:23:18;;;;;;;25.50;20.07;;;;;;;;;;5083329;28;20257;-88
2022/12/15 13:25:47;;;;;;;27.30;18.23;;;;;;;;;;5056628;28;20292;-87
2022/12/15 13:28:31;;;;;;;20.13;15.97;;;;;;;;;;5072969;28;20729;-87
2022/12/15 13:31:27;;;;;;;16.03;13.17;;;;;;;;;;5072891;28;20639;-87
2022/12/15 13:34:05;;;;;;;23.67;18.70;;;;;;;;;;5072274;28;20695;-87
2022/12/15 13:36:54;;;;;;;20.60;14.77;;;;;;;;;;5072559;28;20612;-87
2022/12/15 13:39:53;;;;;;;29.33;21.93;;;;;;;;;;5086437;28;20597;-87
2022/12/15 13:42:35;;;;;;;30.17;22.63;;;;;;;;;;5086801;28;20204;-87
2022/12/15 13:45:35;;;;;;;61.50;40.73;;;;;;;;;;5059032;28;20591;-87
2022/12/15 13:48:13;;;;;;;36.53;26.60;;;;;;;;;;5072017;28;20228;-87
2022/12/15 13:50:45;;;;;;;35.23;24.40;;;;;;;;;;5072082;28;20288;-87
2022/12/15 13:53:18;;;;;;;27.27;21.03;;;;;;;;;;5072264;28;20235;-86
2022/12/15 13:55:54;;;;;;;41.33;26.43;;;;;;;;;;5072192;28;20614;-86
2022/12/15 13:58:23;;;;;;;32.60;20.90;;;;;;;;;;5076448;28;20261;-86
2022/12/15 14:00:52;;;;;;;20.23;17.17;;;;;;;;;;5081429;28;20266;-86
2022/12/15 14:03:19;;;;;;;28.53;21.90;;;;;;;;;;5072712;28;20610;-87
2022/12/15 14:05:50;;;;;;;31.80;24.77;;;;;;;;;;5072404;28;20635;-87
2022/12/15 14:08:18;;;;;;;25.33;19.53;;;;;;;;;;5071974;28;20330;-87
2022/12/15 14:10:47;;;;;;;24.10;19.20;;;;;;;;;;5072194;28;20665;-88
2022/12/15 14:13:18;;;;;;;25.40;17.00;;;;;;;;;;5071635;28;20248;-87
2022/12/15 14:15:51;;;;;;;20.80;15.63;;;;;;;;;;5071801;28;20208;-87
2022/12/15 14:18:31;;;;;;;17.60;13.47;;;;;;;;;;5085575;28;20289;-87
2022/12/15 14:20:58;;;;;;;17.93;12.13;;;;;;;;;;5060374;28;20208;-87
2022/12/15 14:23:27;;;;;;;16.83;13.30;;;;;;;;;;5071343;28;20211;-88
2022/12/15 14:26:03;;;;;;;19.47;16.43;;;;;;;;;;5071814;28;20213;-88
2022/12/15 14:28:32;;;;;;;18.13;15.53;;;;;;;;;;5072021;28;20270;-87
2022/12/15 14:31:03;;;;;;;13.33;10.37;;;;;;;;;;5071583;28;20208;-87
2022/12/15 14:33:31;;;;;;;22.57;16.53;;;;;;;;;;5085323;28;20227;-87
2022/12/15 14:35:59;;;;;;;24.97;16.43;;;;;;;;;;5071147;28;20193;-87
2022/12/15 14:38:30;;;;;;;78.93;44.43;;;;;;;;;;5071754;28;20213;-87
2022/12/15 14:40:57;;;;;;;72.27;44.97;;;;;;;;;;5071661;28;20215;-87
2022/12/15 14:43:27;;;;;;;87.60;47.00;;;;;;;;;;5071481;28;20198;-87
2022/12/15 14:45:56;;;;;;;65.47;38.53;;;;;;;;;;5071161;28;20205;-87
2022/12/15 14:48:29;;;;;;;19.90;15.37;;;;;;;;;;5070668;28;20756;-87
2022/12/15 14:50:59;;;;;;;19.60;12.17;;;;;;;;;;5071380;28;20236;-86
2022/12/15 14:53:31;;;;;;;19.37;12.93;;;;;;;;;;5071066;28;20228;-87
2022/12/15 14:55:59;;;;;;;15.77;11.67;;;;;;;;;;5071387;28;20700;-86
2022/12/15 14:58:32;;;;;;;30.73;22.30;;;;;;;;;;5071346;28;20197;-87
2022/12/15 15:00:59;;;;;;;31.80;23.47;;;;;;;;;;5071161;28;20208;-87
2022/12/15 15:03:36;;;;;;;41.57;28.03;;;;;;;;;;5071399;28;20211;-87
2022/12/15 15:06:05;;;;;;;27.43;21.50;;;;;;;;;;5071203;28;20253;-87
2022/12/15 15:08:34;;;;;;;27.87;19.30;;;;;;;;;;5071195;28;20597;-87
2022/12/15 15:11:03;;;;;;;25.47;19.20;;;;;;;;;;5071208;28;20217;-87
2022/12/15 15:13:36;;;;;;;23.20;18.13;;;;;;;;;;5075124;28;20224;-87
2022/12/15 15:16:07;;;;;;;32.50;26.97;;;;;;;;;;5075644;28;20212;-87
2022/12/15 15:18:35;;;;;;;49.00;35.40;;;;;;;;;;5075277;28;20240;-87
2022/12/15 15:21:04;;;;;;;103.40;67.73;;;;;;;;;;5075480;28;20213;-87
2022/12/15 15:23:31;;;;;;;66.63;53.47;;;;;;;;;;5089566;28;20632;-87
2022/12/15 15:26:10;;;;;;;32.83;26.67;;;;;;;;;;5075015;28;20406;-88
2022/12/15 15:28:38;;;;;;;30.03;20.23;;;;;;;;;;5075184;28;20590;-88
2022/12/15 15:31:26;;;;;;;18.97;15.33;;;;;;;;;;5075056;28;20262;-87
2022/12/15 15:33:59;;;;;;;16.17;13.67;;;;;;;;;;5075377;28;20232;-88
2022/12/15 15:36:31;;;;;;;23.43;17.57;;;;;;;;;;5074761;28;20566;-87
2022/12/15 15:38:58;;;;;;;17.33;14.03;;;;;;;;;;5075306;28;20209;-87
2022/12/15 15:41:28;;;;;;;19.50;14.23;;;;;;;;;;5074726;28;20218;-88
2022/12/15 15:43:55;;;;;;;45.58;21.98;;;;;;;;;;5074224;28;20532;-88
2022/12/15 15:46:24;;;;;;;29.10;16.27;;;;;;;;;;5060348;28;20201;-88
2022/12/15 15:49:05;;;;;;;25.80;17.57;;;;;;;;;;5065658;28;20206;-87
2022/12/15 15:51:33;;;;;;;49.40;38.60;;;;;;;;;;5067915;28;20235;-88
2022/12/15 15:54:01;;;;;;;42.90;30.67;;;;;;;;;;5071114;28;20304;-88
2022/12/15 15:56:29;;;;;;;31.53;25.23;;;;;;;;;;5074338;28;20202;-88
2022/12/15 15:58:56;;;;;;;31.70;20.80;;;;;;;;;;5074314;28;20197;-88
2022/12/15 16:01:24;;;;;;;41.57;31.60;;;;;;;;;;5058671;28;20241;-89
2022/12/15 16:03:51;;;;;;;38.30;28.20;;;;;;;;;;5072740;28;20239;-87
2022/12/15 16:06:23;;;;;;;28.30;22.50;;;;;;;;;;5074492;28;20209;-88
2022/12/15 16:08:52;;;;;;;19.40;14.70;;;;;;;;;;5074161;28;20225;-88
2022/12/15 16:11:20;;;;;;;86.20;71.27;;;;;;;;;;5074060;28;20684;-88
2022/12/15 16:13:47;;;;;;;34.47;27.27;;;;;;;;;;5087210;28;20225;-88
2022/12/15 16:16:18;;;;;;;24.30;17.77;;;;;;;;;;5072773;28;20741;-88
2022/12/15 16:18:45;;;;;;;108.77;72.00;;;;;;;;;;5073988;28;20302;-88
2022/12/15 16:21:14;;;;;;;54.10;42.23;;;;;;;;;;5069698;28;20209;-88
2022/12/15 16:23:46;;;;;;;50.07;33.73;;;;;;;;;;5065668;28;20748;-88
2022/12/15 16:26:15;;;;;;;23.20;19.77;;;;;;;;;;5063913;28;20713;-88
2022/12/15 16:28:42;;;;;;;19.63;15.97;;;;;;;;;;5061772;28;20266;-88
2022/12/15 16:31:11;;;;;;;33.33;27.83;;;;;;;;;;5073641;28;20214;-87
2022/12/15 16:33:38;;;;;;;48.43;33.70;;;;;;;;;;5088317;28;20724;-88
2022/12/15 16:36:10;;;;;;;50.80;36.33;;;;;;;;;;5052459;28;20214;-87
2022/12/15 16:38:38;;;;;;;37.23;26.83;;;;;;;;;;5074263;28;20208;-87
2022/12/15 16:41:07;;;;;;;27.70;19.90;;;;;;;;;;5071863;28;20205;-87
2022/12/15 16:43:35;;;;;;;15.60;10.90;;;;;;;;;;5070899;28;20205;-88
2022/12/15 16:46:02;;;;;;;25.37;19.13;;;;;;;;;;5072015;28;20205;-88
2022/12/15 16:48:29;;;;;;;34.47;25.23;;;;;;;;;;5073276;28;20215;-87
2022/12/15 16:51:01;;;;;;;184.27;152.53;;;;;;;;;;5073527;28;20205;-87
2022/12/15 16:53:30;;;;;;;58.73;46.23;;;;;;;;;;5058982;28;20197;-88
2022/12/15 16:55:58;;;;;;;46.20;36.37;;;;;;;;;;5072994;28;20208;-87
2022/12/15 16:58:28;;;;;;;42.90;30.10;;;;;;;;;;5072824;28;20205;-88
2022/12/15 17:00:55;;;;;;;30.90;27.07;;;;;;;;;;5063269;28;20590;-87
2022/12/15 17:03:24;;;;;;;27.67;23.27;;;;;;;;;;5063229;28;20208;-88
2022/12/15 17:05:53;;;;;;;37.83;29.90;;;;;;;;;;5072994;28;20201;-88
2022/12/15 17:08:22;;;;;;;40.33;32.43;;;;;;;;;;5073249;28;20213;-87
2022/12/15 17:10:49;;;;;;;33.20;25.50;;;;;;;;;;5071535;28;20205;-89
2022/12/15 17:13:29;;;;;;;40.00;30.23;;;;;;;;;;5072972;28;20197;-88